Terminal Aerodrome Forecast
Issued by NWS Cleveland, OH

Home | Current Version | Previous Version | Text Only | Print | Product List | Glossary Off
Versions: 1 2 3 4 5 6 7 8 9 10 11 12 13 14 15 16 17 18

000
FTUS41 KCLE 210500
TAFTOL
TAF
KTOL 210540Z 2106/2206 22008KT P6SM SCT025 BKN045
      TEMPO 2107/2110 5SM -SHRA BR BKN025
     FM211000 24008KT 5SM BR SCT006 OVC015
      TEMPO 2110/2114 BKN006
     FM211500 28012G20KT P6SM BKN022
     FM212000 30015G22KT P6SM VCSH BKN025
     FM220000 33010KT P6SM BKN035=

USA.gov is the U.S. government's official web portal to all federal, state and local government web resources and services.